Time;durP1;ratioP1;P1;durP2;ratioP2;P2;SDS_P1;SDS_P2;PMS_P1;PMS_P2;Temp;Humidity;BMP_temperature;BMP_pressure;BME280_temperature;BME280_humidity;BME280_pressure;Samples;Min_cycle;Max_cycle;Signal;HPM_P1;HPM_P2
2023/03/26 00:02:14;;;;;;;31.82;21.65;;;;;;;8.76;64.15;99596.20;1696406;84;21209;-59
2023/03/26 00:05:22;;;;;;;30.50;21.97;;;;;;;8.77;64.24;99605.22;1696525;84;21351;-57
2023/03/26 00:08:28;;;;;;;35.63;22.42;;;;;;;8.78;64.37;99602.84;1696436;84;21193;-57
2023/03/26 00:11:35;;;;;;;33.75;21.82;;;;;;;8.79;64.43;99599.93;1698632;84;21220;-59
2023/03/26 00:14:42;;;;;;;30.88;22.07;;;;;;;8.79;64.53;99603.16;1698803;84;21237;-58
2023/03/26 00:17:48;;;;;;;35.30;22.85;;;;;;;8.77;64.63;99595.67;1698642;84;21221;-58
2023/03/26 00:20:54;;;;;;;32.17;22.05;;;;;;;8.76;64.67;99593.98;1698730;84;21221;-58
2023/03/26 00:24:07;;;;;;;31.17;22.10;;;;;;;8.72;64.72;99592.67;1698683;84;21358;-57
2023/03/26 00:27:09;;;;;;;35.13;24.07;;;;;;;8.69;64.78;99590.28;1698653;84;21268;-58
2023/03/26 00:30:16;;;;;;;34.78;23.70;;;;;;;8.61;64.80;99573.47;1698630;84;21276;-59
2023/03/26 00:33:22;;;;;;;35.13;23.57;;;;;;;8.55;64.91;99579.66;1698679;84;21346;-59
2023/03/26 00:36:29;;;;;;;34.90;23.50;;;;;;;8.50;65.02;99586.71;1698597;84;21362;-57
2023/03/26 00:39:38;;;;;;;40.60;24.25;;;;;;;8.47;65.12;99578.36;1698747;84;21193;-58
2023/03/26 00:42:45;;;;;;;39.38;25.50;;;;;;;8.44;65.21;99570.55;1698761;84;21177;-58
2023/03/26 00:45:55;;;;;;;34.33;22.50;;;;;;;8.44;65.33;99561.00;1698665;84;21200;-57
2023/03/26 00:49:02;;;;;;;37.85;24.80;;;;;;;8.48;65.45;99569.67;1698667;84;21342;-58
2023/03/26 00:52:10;;;;;;;40.45;25.02;;;;;;;8.48;65.48;99568.31;1766008;81;21309;-58
2023/03/26 00:55:17;;;;;;;40.30;26.77;;;;;;;8.51;65.55;99575.62;1769578;81;21200;-59
2023/03/26 00:58:25;;;;;;;39.35;26.23;;;;;;;8.54;65.64;99569.80;1769727;80;21199;-58
2023/03/26 01:01:32;;;;;;;48.87;28.62;;;;;;;8.55;65.71;99570.11;1769590;81;21196;-57
2023/03/26 01:04:41;;;;;;;41.80;27.87;;;;;;;8.59;65.84;99582.87;1769645;81;21192;-57
2023/03/26 01:07:50;;;;;;;43.63;28.00;;;;;;;8.63;65.88;99578.23;1769573;81;21381;-58
2023/03/26 01:11:01;;;;;;;47.13;29.15;;;;;;;8.64;65.89;99568.18;1768331;81;21212;-58
2023/03/26 01:14:09;;;;;;;46.88;30.00;;;;;;;8.65;65.87;99569.86;1769667;81;21188;-58
2023/03/26 01:17:15;;;;;;;42.73;28.23;;;;;;;8.64;65.94;99569.55;1769582;81;21414;-58
2023/03/26 01:20:29;;;;;;;43.00;29.18;;;;;;;8.65;65.98;99580.78;1769082;81;21374;-57
2023/03/26 01:23:38;;;;;;;45.23;28.20;;;;;;;8.66;66.07;99584.69;1769806;81;21204;-58
2023/03/26 01:27:03;;;;;;;43.42;29.37;;;;;;;8.69;66.13;99579.36;1769669;81;21597;-58
2023/03/26 01:30:37;;;;;;;47.38;29.37;;;;;;;8.74;66.19;99578.30;1769619;80;21322;-58
2023/03/26 01:33:54;;;;;;;47.35;29.92;;;;;;;8.75;66.18;99590.40;1769677;81;21181;-57
2023/03/26 01:37:34;;;;;;;46.35;28.90;;;;;;;8.78;66.26;99581.02;1768986;81;21205;-58
2023/03/26 01:40:55;;;;;;;54.77;30.70;;;;;;;8.75;66.18;99584.94;1753299;82;21351;-58
2023/03/26 01:44:35;;;;;;;48.80;30.08;;;;;;;8.76;66.27;99583.06;1714850;83;21277;-59
2023/03/26 01:47:41;;;;;;;58.45;35.55;;;;;;;8.77;66.31;99576.57;1621575;87;21529;-57
2023/03/26 01:50:52;;;;;;;55.25;34.10;;;;;;;8.82;66.37;99580.97;1722692;82;21256;-58
2023/03/26 01:53:57;;;;;;;55.70;34.43;;;;;;;8.81;66.34;99580.14;1769696;80;21323;-58
2023/03/26 01:57:10;;;;;;;54.77;33.58;;;;;;;8.82;66.36;99576.88;1769597;81;21280;-58
2023/03/26 02:00:40;;;;;;;56.55;33.83;;;;;;;8.83;66.43;99584.05;1769607;81;21312;-58
2023/03/26 02:03:57;;;;;;;54.88;34.30;;;;;;;8.87;66.50;99580.76;1769610;80;21326;-58
2023/03/26 02:07:10;;;;;;;52.88;31.90;;;;;;;8.90;66.59;99587.20;1769643;80;21184;-58
2023/03/26 02:10:34;;;;;;;55.52;31.00;;;;;;;8.92;66.58;99588.39;1759663;81;21342;-58
2023/03/26 02:13:40;;;;;;;51.40;31.12;;;;;;;8.92;66.59;99581.56;1765830;80;21196;-58
2023/03/26 02:16:47;;;;;;;52.93;29.25;;;;;;;8.82;66.42;99579.09;1767110;81;21350;-58
2023/03/26 02:19:53;;;;;;;47.23;30.10;;;;;;;8.76;66.47;99577.11;1767196;81;21197;-58
2023/03/26 02:22:59;;;;;;;47.15;29.82;;;;;;;8.73;66.54;99576.62;1766923;81;21188;-57
2023/03/26 02:26:05;;;;;;;51.23;29.02;;;;;;;8.63;66.46;99574.64;1766754;81;21243;-57
2023/03/26 02:29:22;;;;;;;48.50;30.20;;;;;;;8.61;66.65;99578.09;1766803;81;21216;-57
2023/03/26 02:32:28;;;;;;;55.90;30.85;;;;;;;8.62;66.80;99571.59;1766993;81;21358;-57
2023/03/26 02:35:35;;;;;;;53.92;31.87;;;;;;;8.61;66.82;99570.73;1766781;81;21613;-57
2023/03/26 02:38:42;;;;;;;57.83;32.63;;;;;;;8.60;66.86;99568.20;1766570;81;21188;-56
2023/03/26 02:41:48;;;;;;;55.45;33.05;;;;;;;8.62;67.02;99563.41;1766471;81;21220;-58
2023/03/26 02:44:56;;;;;;;54.45;32.20;;;;;;;8.63;67.06;99567.32;1766632;81;21188;-56
2023/03/26 02:48:21;;;;;;;57.27;32.30;;;;;;;8.64;67.13;99566.28;1766606;81;21326;-57
2023/03/26 02:51:33;;;;;;;53.65;29.98;;;;;;;8.63;67.10;99559.64;1766476;80;21232;-57
2023/03/26 02:54:45;;;;;;;53.83;31.27;;;;;;;8.55;66.99;99561.07;1767232;81;21185;-58
2023/03/26 02:57:53;;;;;;;48.40;29.63;;;;;;;8.46;67.02;99562.18;1767173;81;21220;-57
2023/03/26 03:01:04;;;;;;;53.80;31.42;;;;;;;8.48;67.19;99560.13;1767183;80;21177;-57
2023/03/26 03:04:17;;;;;;;;;;;;;;;8.46;67.21;99560.81;1769760;81;21393;-57
2023/03/26 03:07:26;;;;;;;51.75;30.35;;;;;;;8.34;67.12;99559.56;1767202;81;20272;-57
2023/03/26 03:10:33;;;;;;;55.12;30.60;;;;;;;8.27;67.35;99570.84;1767188;81;21208;-57
2023/03/26 03:13:40;;;;;;;52.80;31.10;;;;;;;8.30;67.55;99562.30;1764525;81;21201;-57
2023/03/26 03:16:50;;;;;;;53.35;29.95;;;;;;;8.32;67.56;99564.34;1761959;81;21205;-57
2023/03/26 03:19:55;;;;;;;55.88;31.82;;;;;;;8.28;67.52;99560.26;1762014;81;21173;-58
2023/03/26 03:23:01;;;;;;;48.65;30.55;;;;;;;8.27;67.68;99566.75;1762094;81;21327;-58
2023/03/26 03:26:07;;;;;;;60.58;35.45;;;;;;;8.31;67.84;99557.20;1762138;81;21359;-58
2023/03/26 03:29:12;;;;;;;48.25;29.12;;;;;;;8.35;67.91;99551.70;1762067;81;21319;-57
2023/03/26 03:32:21;;;;;;;50.20;29.95;;;;;;;8.37;67.94;99555.10;1762072;80;21232;-57
2023/03/26 03:35:28;;;;;;;54.58;31.07;;;;;;;8.39;67.95;99555.23;1762123;81;21259;-57
2023/03/26 03:38:36;;;;;;;53.85;31.85;;;;;;;8.39;67.97;99551.15;1762209;80;21264;-58
2023/03/26 03:41:44;;;;;;;55.33;32.35;;;;;;;8.38;67.95;99541.79;1762051;80;21212;-57
2023/03/26 03:44:50;;;;;;;60.03;35.85;;;;;;;8.36;67.99;99540.61;1762015;81;21169;-57
2023/03/26 03:48:08;;;;;;;60.17;34.55;;;;;;;8.34;68.00;99538.57;1762134;81;21201;-57
2023/03/26 03:51:15;;;;;;;63.40;34.80;;;;;;;8.31;68.05;99540.84;1762100;81;21350;-58
2023/03/26 03:54:23;;;;;;;58.78;33.90;;;;;;;8.31;68.14;99539.48;1762087;81;21169;-57
2023/03/26 03:57:33;;;;;;;57.83;32.83;;;;;;;8.30;68.18;99529.58;1762113;81;21216;-57
2023/03/26 04:00:43;;;;;;;55.73;31.33;;;;;;;8.29;68.31;99534.17;1762215;81;21252;-56
2023/03/26 04:04:08;;;;;;;55.83;31.10;;;;;;;8.32;68.37;99530.25;1761651;81;21330;-58
2023/03/26 04:07:26;;;;;;;56.10;28.52;;;;;;;8.33;68.46;99522.39;1762143;81;21291;-58
2023/03/26 04:10:48;;;;;;;45.95;27.85;;;;;;;8.39;68.60;99533.42;1762056;81;21301;-61
2023/03/26 04:13:58;;;;;;;43.65;26.48;;;;;;;8.47;68.70;99536.09;1760839;80;21327;-57
2023/03/26 04:17:09;;;;;;;38.40;23.62;;;;;;;8.53;68.72;99533.98;1753447;81;21421;-58
2023/03/26 04:20:18;;;;;;;39.70;25.43;;;;;;;8.57;68.76;99533.11;1759476;81;21173;-59
2023/03/26 04:23:25;;;;;;;43.98;25.30;;;;;;;8.61;68.77;99541.27;1759421;81;21319;-59
2023/03/26 04:26:34;;;;;;;38.95;23.30;;;;;;;8.63;68.75;99546.00;1759457;81;21240;-57
2023/03/26 04:29:51;;;;;;;30.70;20.23;;;;;;;8.65;68.83;99545.31;1759480;81;21209;-58
2023/03/26 04:32:59;;;;;;;28.47;18.25;;;;;;;8.69;68.87;99537.94;1759448;81;21165;-57
2023/03/26 04:36:06;;;;;;;34.05;19.80;;;;;;;8.73;68.96;99543.37;1759397;81;21749;-58
2023/03/26 04:39:13;;;;;;;32.90;21.02;;;;;;;8.74;68.93;99540.97;1759407;81;21257;-57
2023/03/26 04:42:40;;;;;;;36.60;21.30;;;;;;;8.74;68.92;99546.92;1686407;83;21220;-57
2023/03/26 04:45:51;;;;;;;37.00;20.75;;;;;;;8.76;68.97;99550.33;1721285;83;21236;-58
2023/03/26 04:49:00;;;;;;;28.95;19.70;;;;;;;8.81;69.05;99538.34;1702867;84;21202;-58
2023/03/26 04:52:05;;;;;;;30.77;19.40;;;;;;;8.84;69.03;99537.97;1722738;83;21265;-56
2023/03/26 04:55:17;;;;;;;30.43;17.60;;;;;;;8.85;69.03;99538.29;1703255;83;21201;-58
2023/03/26 04:58:32;;;;;;;30.10;16.95;;;;;;;8.83;69.02;99539.02;1722781;83;21205;-57
2023/03/26 05:01:31;;;;;;;26.52;14.90;;;;;;;8.85;69.09;99543.25;1702060;84;21277;-57
2023/03/26 05:04:42;;;;;;;25.48;14.30;;;;;;;8.86;69.12;99546.83;1722497;82;21272;-57
2023/03/26 05:07:49;;;;;;;25.17;15.72;;;;;;;8.84;69.11;99544.80;1702452;84;21198;-58
2023/03/26 05:10:55;;;;;;;27.98;16.12;;;;;;;8.83;69.14;99547.20;1721952;82;21186;-58
2023/03/26 05:14:01;;;;;;;32.80;19.85;;;;;;;8.86;69.29;99540.84;1692469;85;21788;-58
2023/03/26 05:17:09;;;;;;;27.80;18.62;;;;;;;8.89;69.33;99548.68;1758318;80;21220;-58
2023/03/26 05:20:20;;;;;;;44.42;22.13;;;;;;;8.90;69.28;99549.50;1759399;81;21547;-58
2023/03/26 05:23:28;;;;;;;34.58;23.38;;;;;;;8.93;69.36;99554.59;1759385;81;21212;-58
2023/03/26 05:26:38;;;;;;;40.65;25.48;;;;;;;8.94;69.38;99553.58;1759472;81;21358;-58
2023/03/26 05:29:48;;;;;;;45.00;26.57;;;;;;;8.94;69.42;99547.58;1759329;81;21220;-58
2023/03/26 05:32:58;;;;;;;37.83;23.73;;;;;;;8.93;69.32;99559.54;1759389;81;21176;-57
2023/03/26 05:36:17;;;;;;;30.88;19.48;;;;;;;8.89;69.32;99560.11;1759339;81;21196;-58
2023/03/26 05:39:42;;;;;;;22.82;14.90;;;;;;;8.88;69.43;99557.88;1759524;81;21240;-58
2023/03/26 05:42:57;;;;;;;23.80;14.00;;;;;;;8.84;69.37;99565.27;1749527;81;21185;-58
2023/03/26 05:46:05;;;;;;;22.95;12.47;;;;;;;8.84;69.51;99559.80;1759316;81;21362;-58
2023/03/26 05:49:13;;;;;;;18.90;11.40;;;;;;;8.84;69.57;99555.20;1759329;81;21293;-59
2023/03/26 05:52:18;;;;;;;20.08;11.97;;;;;;;8.87;69.68;99560.80;1765810;81;21216;-58
2023/03/26 05:55:49;;;;;;;16.87;11.57;;;;;;;8.90;69.72;99555.83;1742883;82;21316;-58
2023/03/26 05:59:12;;;;;;;17.98;11.40;;;;;;;8.95;69.79;99553.89;1729333;83;21178;-60
2023/03/26 06:02:35;;;;;;;17.50;12.10;;;;;;;8.96;69.78;99550.13;1729360;83;21201;-59
2023/03/26 06:05:52;;;;;;;20.27;11.80;;;;;;;8.98;69.72;99549.42;1730932;82;21237;-58
2023/03/26 06:09:03;;;;;;;16.30;10.53;;;;;;;8.97;69.74;99557.30;1732633;83;21346;-58
2023/03/26 06:12:10;;;;;;;17.00;9.65;;;;;;;9.00;69.89;99556.92;1732543;83;21209;-57
2023/03/26 06:15:17;;;;;;;15.53;9.95;;;;;;;9.07;70.02;99558.72;1719458;83;21212;-58
2023/03/26 06:18:25;;;;;;;18.57;11.45;;;;;;;9.13;70.06;99561.73;1684648;84;21273;-58
2023/03/26 06:21:34;;;;;;;16.45;10.82;;;;;;;9.15;70.02;99565.14;1688788;84;21190;-57
2023/03/26 06:24:45;;;;;;;15.00;10.23;;;;;;;9.15;70.04;99565.96;1702437;84;21186;-58
2023/03/26 06:28:11;;;;;;;15.40;10.75;;;;;;;9.16;70.04;99561.36;1702146;84;21264;-58
2023/03/26 06:31:23;;;;;;;13.83;9.95;;;;;;;9.17;70.06;99559.80;1702369;84;21764;-58
2023/03/26 06:34:40;;;;;;;12.98;9.38;;;;;;;9.17;70.07;99557.58;1702427;84;21189;-59
2023/03/26 06:37:48;;;;;;;11.70;8.20;;;;;;;9.18;70.12;99553.30;1702455;84;21194;-58
2023/03/26 06:40:56;;;;;;;13.50;9.00;;;;;;;9.20;70.19;99560.80;1702423;84;21221;-59
2023/03/26 06:44:10;;;;;;;12.03;8.20;;;;;;;9.20;70.17;99559.42;1661891;86;21232;-59
2023/03/26 06:47:35;;;;;;;13.38;8.30;;;;;;;9.19;70.15;99560.48;1658515;86;21230;-58
2023/03/26 06:50:49;;;;;;;11.78;7.75;;;;;;;9.22;70.34;99566.06;1705566;84;21228;-58
2023/03/26 06:53:59;;;;;;;12.23;7.00;;;;;;;9.19;70.20;99565.94;1705897;84;21258;-58
2023/03/26 06:57:20;;;;;;;9.60;7.35;;;;;;;9.19;70.30;99559.62;1706878;84;21229;-58
2023/03/26 07:00:42;;;;;;;9.73;7.10;;;;;;;9.19;70.30;99566.44;1669206;85;21301;-58
2023/03/26 07:04:06;;;;;;;8.83;6.95;;;;;;;9.21;70.40;99569.34;1658362;86;21230;-58
2023/03/26 07:07:31;;;;;;;12.60;7.17;;;;;;;9.24;70.44;99561.27;1707296;84;21916;-59
2023/03/26 07:10:56;;;;;;;11.60;7.42;;;;;;;9.25;70.45;99567.05;1706983;84;21196;-59
2023/03/26 07:14:14;;;;;;;11.45;7.20;;;;;;;9.28;70.56;99566.17;1669028;86;21217;-59
2023/03/26 07:17:39;;;;;;;10.00;6.95;;;;;;;9.32;70.56;99566.14;1666229;83;21449;-58
2023/03/26 07:20:47;;;;;;;12.20;7.20;;;;;;;9.36;70.63;99563.35;1709448;83;21210;-58
2023/03/26 07:23:56;;;;;;;9.95;6.33;;;;;;;9.37;70.57;99557.38;1688597;83;21363;-58
2023/03/26 07:27:23;;;;;;;9.88;6.87;;;;;;;9.29;70.41;99555.59;1677238;85;21237;-59
2023/03/26 07:31:07;;;;;;;10.45;7.10;;;;;;;9.29;70.60;99561.06;1688064;84;21351;-59
2023/03/26 07:34:37;;;;;;;19.02;11.18;;;;;;;9.39;70.74;99556.14;1620093;88;21268;-60
2023/03/26 07:37:50;;;;;;;14.68;9.58;;;;;;;9.47;70.77;99556.56;1629751;83;21236;-60
2023/03/26 07:41:25;;;;;;;15.98;10.38;;;;;;;9.53;70.86;99553.92;1685474;84;21236;-59
2023/03/26 07:44:59;;;;;;;9.20;6.65;;;;;;;9.58;70.85;99551.47;1706543;84;21587;-60
2023/03/26 07:48:28;;;;;;;9.43;6.33;;;;;;;9.58;70.67;99551.47;1709224;83;21204;-60
2023/03/26 07:51:39;;;;;;;10.03;5.87;;;;;;;9.54;70.70;99551.54;1691904;85;21322;-60
2023/03/26 07:54:50;;;;;;;7.08;5.35;;;;;;;9.56;70.80;99549.44;1724671;81;21198;-60
2023/03/26 07:58:21;;;;;;;8.50;5.87;;;;;;;9.61;70.96;99560.66;1688969;84;21211;-60
2023/03/26 08:02:19;;;;;;;6.40;4.80;;;;;;;9.69;71.04;99555.62;1709083;84;21228;-60
2023/03/26 08:05:41;;;;;;;8.78;4.80;;;;;;;9.72;70.99;99557.98;1707069;84;21312;-60
2023/03/26 08:09:17;;;;;;;6.20;4.90;;;;;;;9.75;71.05;99555.69;1690356;84;21777;-60
2023/03/26 08:12:34;;;;;;;8.23;4.78;;;;;;;9.71;70.88;99554.38;1705369;84;21196;-60
2023/03/26 08:15:48;;;;;;;7.03;4.83;;;;;;;9.70;70.96;99554.58;1708965;83;21209;-60
2023/03/26 08:19:30;;;;;;;;;;;;;;;9.75;71.10;99549.39;1698906;82;21856;-61
2023/03/26 08:22:42;;;;;;;8.73;4.47;;;;;;;9.80;71.03;99549.67;1731935;82;20198;-60
2023/03/26 08:26:09;;;;;;;5.25;4.12;;;;;;;9.79;71.12;99550.19;1687648;84;21256;-59
2023/03/26 08:29:41;;;;;;;5.83;4.37;;;;;;;9.87;71.17;99547.84;1765235;81;21175;-60
2023/03/26 08:32:48;;;;;;;7.72;4.65;;;;;;;9.85;71.10;99552.14;1765352;81;21234;-60
2023/03/26 08:35:56;;;;;;;7.47;3.98;;;;;;;9.86;71.23;99548.36;1765176;81;21198;-59
2023/03/26 08:39:03;;;;;;;4.97;3.33;;;;;;;9.93;71.39;99553.91;1765176;81;21198;-59
2023/03/26 08:42:42;;;;;;;5.45;3.75;;;;;;;9.96;71.43;99558.48;1765093;81;21253;-60
2023/03/26 08:45:56;;;;;;;5.92;3.40;;;;;;;10.00;71.44;99555.70;1765220;81;21206;-59
2023/03/26 08:49:32;;;;;;;4.65;3.33;;;;;;;9.99;71.44;99547.70;1765363;81;21726;-59
2023/03/26 08:53:23;;;;;;;6.30;4.10;;;;;;;10.03;71.51;99548.99;1765134;81;21190;-59
2023/03/26 08:56:50;;;;;;;6.87;4.60;;;;;;;10.07;71.58;99552.55;1765145;81;21327;-59
2023/03/26 09:00:27;;;;;;;6.92;4.55;;;;;;;10.09;71.61;99553.20;1765221;81;21250;-60
2023/03/26 09:03:59;;;;;;;5.58;3.87;;;;;;;10.12;71.62;99548.72;1765385;81;21317;-60
2023/03/26 09:07:45;;;;;;;6.78;3.90;;;;;;;10.12;71.58;99559.66;1765161;81;21237;-59
2023/03/26 09:11:40;;;;;;;4.53;3.25;;;;;;;10.14;71.69;99552.63;1765212;81;21344;-59
2023/03/26 09:15:29;;;;;;;5.50;3.20;;;;;;;10.20;71.81;99549.11;1765347;81;21194;-59
2023/03/26 09:18:58;;;;;;;5.75;2.95;;;;;;;10.24;71.84;99551.26;1765196;81;21186;-59
2023/03/26 09:22:39;;;;;;;5.60;3.52;;;;;;;10.23;71.71;99546.84;1765133;81;21191;-60
2023/03/26 09:26:22;;;;;;;4.40;3.08;;;;;;;10.23;71.82;99549.58;1765024;81;21234;-60
2023/03/26 09:30:16;;;;;;;4.55;2.83;;;;;;;10.23;71.80;99555.56;1765224;81;21194;-59
2023/03/26 09:33:46;;;;;;;4.95;2.92;;;;;;;10.22;71.90;99554.73;1702232;84;21199;-60
2023/03/26 09:37:25;;;;;;;4.42;3.02;;;;;;;10.22;72.06;99553.88;1701982;84;21222;-59
2023/03/26 09:40:46;;;;;;;5.62;3.05;;;;;;;10.27;72.16;99544.06;1764421;81;21245;-59
2023/03/26 09:44:44;;;;;;;3.60;2.90;;;;;;;10.33;72.18;99541.91;1764379;81;21187;-58
2023/03/26 09:48:29;;;;;;;4.65;3.20;;;;;;;10.36;72.14;99542.03;1764345;80;21198;-59
2023/03/26 09:51:46;;;;;;;5.28;3.75;;;;;;;10.32;72.15;99538.83;1770062;80;21893;-59
2023/03/26 09:55:10;;;;;;;5.47;3.72;;;;;;;10.36;72.27;99534.68;1764575;81;21285;-60
2023/03/26 09:58:37;;;;;;;5.90;3.70;;;;;;;10.42;72.34;99529.78;1764282;80;21222;-61
2023/03/26 10:02:05;;;;;;;5.33;3.58;;;;;;;10.47;72.34;99530.56;1733821;83;21220;-60
2023/03/26 10:05:43;;;;;;;5.42;3.12;;;;;;;10.51;72.40;99534.62;1734118;83;21263;-59
2023/03/26 10:08:57;;;;;;;5.12;3.30;;;;;;;10.52;72.38;99534.93;1733883;82;21192;-60
2023/03/26 10:12:16;;;;;;;6.22;3.67;;;;;;;10.49;72.36;99529.85;1733487;83;21224;-59
2023/03/26 10:15:51;;;;;;;5.55;3.30;;;;;;;10.46;72.32;99532.98;1733506;82;21776;-60
2023/03/26 10:19:18;;;;;;;4.95;3.50;;;;;;;10.45;72.37;99531.27;1733507;82;21204;-59
2023/03/26 10:22:51;;;;;;;7.55;3.15;;;;;;;10.47;72.49;99530.56;1733455;82;21212;-60
2023/03/26 10:26:33;;;;;;;4.75;3.17;;;;;;;10.50;72.53;99520.08;1736282;82;21365;-59
2023/03/26 10:30:15;;;;;;;4.37;2.90;;;;;;;10.55;72.54;99532.66;1737034;82;21212;-60
2023/03/26 10:33:45;;;;;;;5.40;3.20;;;;;;;10.59;72.62;99527.09;1736301;82;21212;-59
2023/03/26 10:37:17;;;;;;;4.58;2.33;;;;;;;10.63;72.65;99524.82;1736397;82;21283;-60
2023/03/26 10:40:49;;;;;;;3.05;2.40;;;;;;;10.68;72.69;99522.86;1736506;82;21196;-59
2023/03/26 10:44:44;;;;;;;3.42;2.30;;;;;;;10.71;72.71;99523.83;1736536;82;21200;-61
2023/03/26 10:48:07;;;;;;;3.02;2.33;;;;;;;10.70;72.68;99518.04;1736994;82;21200;-59
2023/03/26 10:51:35;;;;;;;3.30;1.98;;;;;;;10.75;72.81;99512.83;1736670;82;21390;-59
2023/03/26 10:55:10;;;;;;;3.35;2.12;;;;;;;10.80;72.83;99507.61;1735899;82;22192;-60
2023/03/26 10:58:35;;;;;;;3.08;1.70;;;;;;;10.77;72.79;99509.34;1734426;82;21189;-59
2023/03/26 11:02:11;;;;;;;3.05;2.05;;;;;;;10.73;72.81;99506.18;1741809;81;21221;-59
2023/03/26 11:05:47;;;;;;;3.47;2.12;;;;;;;10.72;72.81;99504.47;1744109;80;21209;-61
2023/03/26 11:09:29;;;;;;;2.60;1.75;;;;;;;10.75;72.88;99493.66;1704912;83;21200;-60
2023/03/26 11:12:48;;;;;;;5.60;2.25;;;;;;;10.84;73.00;99497.94;1705120;84;21204;-60
2023/03/26 11:16:08;;;;;;;5.45;2.37;;;;;;;10.91;73.10;99494.19;1695787;84;22077;-62
2023/03/26 11:19:26;;;;;;;4.33;2.25;;;;;;;11.00;73.18;99495.75;1703901;83;21213;-62
2023/03/26 11:22:45;;;;;;;3.65;2.30;;;;;;;11.12;73.24;99493.28;1701198;82;21252;-62
2023/03/26 11:26:07;;;;;;;4.10;2.10;;;;;;;11.22;73.22;99489.67;1703765;83;22638;-61
2023/03/26 11:29:49;;;;;;;4.53;2.10;;;;;;;11.23;73.11;99496.83;1704549;84;21172;-62
2023/03/26 11:33:07;;;;;;;3.58;2.42;;;;;;;11.20;73.03;99491.75;1704766;84;21220;-61
2023/03/26 11:36:28;;;;;;;4.92;3.40;;;;;;;11.16;73.02;99493.22;1704906;84;21369;-61
2023/03/26 11:39:36;;;;;;;7.95;5.53;;;;;;;11.13;73.10;99490.88;1705026;84;21200;-61
2023/03/26 11:42:43;;;;;;;9.35;6.12;;;;;;;11.14;73.28;99487.94;1705142;84;21326;-61
2023/03/26 11:45:52;;;;;;;4.80;3.37;;;;;;;11.21;73.34;99491.55;1705062;84;21232;-61
2023/03/26 11:49:09;;;;;;;7.40;3.85;;;;;;;11.23;73.27;99484.50;1693296;83;21227;-61
2023/03/26 11:52:18;;;;;;;3.50;2.50;;;;;;;11.27;73.33;99491.28;1705582;83;21309;-61
2023/03/26 11:55:26;;;;;;;4.60;2.37;;;;;;;11.31;73.39;99485.70;1704633;84;21371;-61
2023/03/26 11:58:37;;;;;;;4.42;2.70;;;;;;;11.33;73.42;99486.36;1716605;82;21176;-62
2023/03/26 12:02:04;;;;;;;5.40;3.33;;;;;;;11.35;73.41;99479.61;1737016;82;21276;-61
2023/03/26 12:05:21;;;;;;;5.50;4.08;;;;;;;11.41;73.50;99479.34;1734911;82;21702;-61
2023/03/26 12:08:38;;;;;;;4.25;3.22;;;;;;;11.46;73.47;99483.18;1734816;83;21244;-61
2023/03/26 12:11:44;;;;;;;5.35;3.80;;;;;;;11.46;73.33;99485.92;1734444;83;21204;-62
2023/03/26 12:14:50;;;;;;;3.47;2.85;;;;;;;11.44;73.38;99481.16;1734940;82;21173;-62
2023/03/26 12:18:00;;;;;;;4.55;3.37;;;;;;;11.47;73.45;99478.52;1734154;82;21213;-61
2023/03/26 12:21:22;;;;;;;5.22;3.52;;;;;;;11.49;73.53;99473.69;1734398;83;21260;-61
2023/03/26 12:24:40;;;;;;;8.45;4.62;;;;;;;11.53;73.60;99470.84;1732745;82;21260;-61
2023/03/26 12:27:54;;;;;;;5.75;3.90;;;;;;;11.55;73.61;99468.76;1734524;82;21276;-61
2023/03/26 12:31:06;;;;;;;5.90;3.95;;;;;;;11.58;73.65;99474.69;1677476;82;21187;-61
2023/03/26 12:34:23;;;;;;;5.08;3.60;;;;;;;11.61;73.68;99472.05;1723962;83;21582;-61
2023/03/26 12:37:44;;;;;;;5.97;3.90;;;;;;;11.62;73.65;99470.47;1724545;83;21298;-61
2023/03/26 12:40:49;;;;;;;5.37;3.77;;;;;;;11.63;73.65;99463.98;1707410;82;21197;-61
2023/03/26 12:43:59;;;;;;;7.10;4.60;;;;;;;11.62;73.67;99466.91;1698776;83;21213;-61
2023/03/26 12:47:29;;;;;;;6.22;4.40;;;;;;;11.62;73.69;99458.68;1721708;82;21269;-61
2023/03/26 12:50:50;;;;;;;6.47;4.35;;;;;;;11.62;73.71;99463.62;1701897;84;21880;-61
2023/03/26 12:54:39;;;;;;;7.67;4.67;;;;;;;11.65;73.78;99460.50;1722187;83;21244;-60
2023/03/26 12:58:01;;;;;;;5.90;4.20;;;;;;;11.68;73.85;99456.52;1673016;85;21209;-61
2023/03/26 13:01:17;;;;;;;7.33;4.70;;;;;;;11.67;73.82;99463.06;1721757;83;21590;-60
2023/03/26 13:04:42;;;;;;;;;;;;;;;11.63;73.77;99459.02;1703851;84;21253;-61
2023/03/26 13:08:21;;;;;;;5.87;4.33;;;;;;;11.59;73.82;99461.29;1721782;82;20210;-61
2023/03/26 13:12:00;;;;;;;6.05;5.33;;;;;;;11.60;73.94;99458.03;1720108;83;21266;-61
2023/03/26 13:15:23;;;;;;;6.12;4.45;;;;;;;11.61;74.04;99462.45;1694424;82;21280;-61
2023/03/26 13:18:43;;;;;;;6.90;5.28;;;;;;;11.61;74.05;99454.23;1680496;84;21220;-61
2023/03/26 13:21:59;;;;;;;8.25;6.05;;;;;;;11.63;74.09;99455.77;1739069;82;21211;-61
2023/03/26 13:25:22;;;;;;;11.12;7.45;;;;;;;11.65;74.11;99452.82;1715275;81;21200;-61
2023/03/26 13:29:01;;;;;;;7.92;5.83;;;;;;;11.66;74.11;99449.02;1754872;81;21215;-61
2023/03/26 13:32:18;;;;;;;10.53;6.85;;;;;;;11.67;74.14;99443.33;1744471;82;21764;-61
2023/03/26 13:35:41;;;;;;;8.88;6.53;;;;;;;11.71;74.16;99446.50;1743131;80;21582;-61
2023/03/26 13:39:03;;;;;;;;;;;;;;;11.73;74.12;99438.93;1721108;82;21200;-61
2023/03/26 13:42:26;;;;;;;10.32;6.58;;;;;;;11.76;74.15;99434.40;1707291;84;20248;-61
2023/03/26 13:45:49;;;;;;;9.33;6.42;;;;;;;11.79;74.23;99433.98;1707293;84;22038;-62
2023/03/26 13:49:05;;;;;;;8.23;5.78;;;;;;;11.83;74.29;99436.10;1691067;84;21757;-61
2023/03/26 13:52:18;;;;;;;8.53;5.90;;;;;;;11.87;74.30;99435.17;1707850;84;21295;-61
2023/03/26 13:55:43;;;;;;;6.83;5.37;;;;;;;11.92;74.28;99429.91;1691239;84;21208;-61
2023/03/26 13:59:08;;;;;;;6.70;5.28;;;;;;;11.95;74.24;99426.23;1709055;84;21365;-60
2023/03/26 14:02:22;;;;;;;7.70;6.20;;;;;;;11.95;74.27;99421.27;1684885;85;21749;-60
2023/03/26 14:05:49;;;;;;;10.20;8.33;;;;;;;11.98;74.39;99426.33;1738508;82;21455;-60
2023/03/26 14:09:03;;;;;;;24.30;16.77;;;;;;;12.03;74.41;99425.19;1756701;81;21240;-61
2023/03/26 14:12:32;;;;;;;12.80;9.83;;;;;;;12.02;74.41;99419.36;1759717;81;21294;-61
2023/03/26 14:16:10;;;;;;;9.03;6.95;;;;;;;11.97;74.41;99415.88;1737048;82;21235;-61
2023/03/26 14:19:38;;;;;;;8.83;6.62;;;;;;;11.95;74.38;99413.03;1738124;82;21776;-61
2023/03/26 14:23:15;;;;;;;9.03;7.03;;;;;;;11.91;74.37;99407.63;1737587;82;21208;-60
2023/03/26 14:26:52;;;;;;;8.78;6.42;;;;;;;11.89;74.43;99409.77;1730449;82;21297;-60
2023/03/26 14:30:35;;;;;;;8.93;7.50;;;;;;;11.90;74.53;99401.33;1693813;84;21252;-61
2023/03/26 14:34:05;;;;;;;8.90;6.62;;;;;;;11.93;74.55;99404.17;1674593;85;21252;-60
2023/03/26 14:37:31;;;;;;;9.18;7.70;;;;;;;11.94;74.54;99408.59;1674147;86;21229;-60
2023/03/26 14:41:00;;;;;;;9.30;8.05;;;;;;;11.95;74.62;99406.19;1693730;84;21260;-60
2023/03/26 14:44:35;;;;;;;9.60;7.55;;;;;;;11.94;74.68;99409.44;1674283;85;21707;-60
2023/03/26 14:47:45;;;;;;;;;;;;;;;11.92;74.71;99403.31;1696129;84;21228;-60
2023/03/26 14:51:20;;;;;;;8.10;6.92;;;;;;;11.91;74.72;99404.38;1674307;85;20203;-60
2023/03/26 14:54:30;;;;;;;8.30;6.80;;;;;;;11.90;74.81;99400.47;1693720;84;21205;-60
2023/03/26 14:57:49;;;;;;;10.20;7.20;;;;;;;11.83;74.59;99402.34;1674304;85;21217;-60
2023/03/26 15:01:19;;;;;;;22.50;15.58;;;;;;;11.79;74.67;99403.83;1680525;85;21255;-60
2023/03/26 15:05:20;;;;;;;11.95;9.03;;;;;;;11.75;74.77;99398.42;1702789;83;21631;-60
2023/03/26 15:09:10;;;;;;;10.35;8.15;;;;;;;11.73;74.90;99404.11;1702153;84;21344;-60
2023/03/26 15:12:55;;;;;;;10.88;8.65;;;;;;;11.71;75.00;99395.27;1702393;84;21252;-60
2023/03/26 15:16:19;;;;;;;10.05;8.43;;;;;;;11.69;75.02;99392.40;1702385;84;21205;-61
2023/03/26 15:19:48;;;;;;;9.58;7.92;;;;;;;11.66;75.11;99393.67;1700547;84;21213;-60
2023/03/26 15:23:15;;;;;;;11.12;8.20;;;;;;;11.66;75.21;99390.94;1708797;83;21419;-61
2023/03/26 15:26:55;;;;;;;10.38;8.48;;;;;;;11.67;75.21;99393.16;1694512;84;21257;-60
2023/03/26 15:30:33;;;;;;;11.10;8.60;;;;;;;11.61;75.10;99393.92;1730696;83;21844;-61
2023/03/26 15:33:57;;;;;;;14.38;9.70;;;;;;;11.55;75.09;99390.13;1717253;83;21256;-61
2023/03/26 15:37:33;;;;;;;14.47;10.93;;;;;;;11.52;75.11;99391.06;1718888;83;21355;-59